Time;durP1;ratioP1;P1;durP2;ratioP2;P2;SDS_P1;SDS_P2;PMS_P1;PMS_P2;Temp;Humidity;BMP_temperature;BMP_pressure;BME280_temperature;BME280_humidity;BME280_pressure;Samples;Min_cycle;Max_cycle;Signal;HPM_P1;HPM_P2
2022/11/09 00:02:22;;;;;;;11.07;2.50;;;;;;;;;;5006279;28;20049;-78
2022/11/09 00:04:48;;;;;;;8.05;2.10;;;;;;;;;;5006238;28;20671;-79
2022/11/09 00:07:15;;;;;;;10.43;2.60;;;;;;;;;;5023209;28;20054;-79
2022/11/09 00:09:41;;;;;;;9.93;2.78;;;;;;;;;;5006529;28;20108;-79
2022/11/09 00:12:08;;;;;;;8.40;2.60;;;;;;;;;;5024080;28;20112;-79
2022/11/09 00:14:34;;;;;;;6.53;2.15;;;;;;;;;;5007378;28;20060;-79
2022/11/09 00:17:01;;;;;;;8.32;2.22;;;;;;;;;;5018808;28;20054;-79
2022/11/09 00:19:27;;;;;;;8.82;2.33;;;;;;;;;;5006570;28;20069;-79
2022/11/09 00:21:53;;;;;;;5.70;1.98;;;;;;;;;;5023230;28;20053;-79
2022/11/09 00:24:19;;;;;;;7.35;2.13;;;;;;;;;;5006282;28;20057;-79
2022/11/09 00:26:46;;;;;;;6.40;2.00;;;;;;;;;;5006832;28;20050;-79
2022/11/09 00:29:12;;;;;;;9.00;2.30;;;;;;;;;;5023778;28;20488;-79
2022/11/09 00:31:39;;;;;;;6.68;2.10;;;;;;;;;;5023827;28;20069;-79
2022/11/09 00:34:05;;;;;;;7.13;1.98;;;;;;;;;;5029196;28;20065;-78
2022/11/09 00:36:31;;;;;;;8.13;1.90;;;;;;;;;;5023844;28;20056;-79
2022/11/09 00:38:58;;;;;;;5.72;1.92;;;;;;;;;;5004952;28;20062;-78
2022/11/09 00:41:25;;;;;;;6.30;1.83;;;;;;;;;;5022223;28;20053;-79
2022/11/09 00:43:52;;;;;;;7.00;1.73;;;;;;;;;;5005807;28;20054;-78
2022/11/09 00:46:19;;;;;;;7.15;1.85;;;;;;;;;;5005864;28;20151;-79
2022/11/09 00:48:45;;;;;;;10.70;1.90;;;;;;;;;;5006051;28;20058;-78
2022/11/09 00:51:12;;;;;;;6.95;1.88;;;;;;;;;;5002561;28;20501;-78
2022/11/09 00:53:38;;;;;;;7.45;1.83;;;;;;;;;;5021591;28;20065;-78
2022/11/09 00:56:06;;;;;;;9.23;2.25;;;;;;;;;;5005704;28;20056;-79
2022/11/09 00:58:34;;;;;;;10.10;2.15;;;;;;;;;;5006081;28;20065;-78
2022/11/09 01:01:05;;;;;;;14.75;1.90;;;;;;;;;;4996588;28;20055;-78
2022/11/09 01:03:31;;;;;;;;;;;;;;;;;;5015537;28;20081;-78
2022/11/09 01:05:58;;;;;;;8.88;1.85;;;;;;;;;;5020872;28;46272;-77
2022/11/09 01:08:24;;;;;;;6.20;1.80;;;;;;;;;;5022436;28;20065;-79
2022/11/09 01:10:51;;;;;;;7.70;1.65;;;;;;;;;;5004931;28;20064;-79
2022/11/09 01:13:18;;;;;;;6.93;1.63;;;;;;;;;;4993809;28;20047;-79
2022/11/09 01:15:49;;;;;;;6.80;1.60;;;;;;;;;;4990742;28;20523;-79
2022/11/09 01:18:17;;;;;;;9.05;1.67;;;;;;;;;;5005584;28;20169;-79
2022/11/09 01:20:45;;;;;;;10.15;1.88;;;;;;;;;;5021908;28;20519;-79
2022/11/09 01:23:12;;;;;;;9.00;1.70;;;;;;;;;;5021834;28;20058;-79
2022/11/09 01:25:38;;;;;;;8.90;1.60;;;;;;;;;;5023065;28;20061;-78
2022/11/09 01:28:06;;;;;;;9.25;1.50;;;;;;;;;;5026290;28;20058;-79
2022/11/09 01:30:33;;;;;;;9.27;1.33;;;;;;;;;;5009535;28;20054;-79
2022/11/09 01:33:03;;;;;;;8.63;1.95;;;;;;;;;;5026469;28;20402;-79
2022/11/09 01:35:31;;;;;;;7.85;1.60;;;;;;;;;;4991006;28;20058;-79
2022/11/09 01:37:58;;;;;;;5.07;1.30;;;;;;;;;;5011655;28;20064;-80
2022/11/09 01:40:25;;;;;;;7.95;1.80;;;;;;;;;;5026686;28;20065;-79
2022/11/09 01:42:52;;;;;;;6.97;1.60;;;;;;;;;;5025124;28;20054;-79
2022/11/09 01:45:18;;;;;;;8.57;1.90;;;;;;;;;;5008647;28;20062;-79
2022/11/09 01:47:46;;;;;;;10.07;1.50;;;;;;;;;;5005729;28;20548;-79
2022/11/09 01:50:14;;;;;;;9.75;1.60;;;;;;;;;;5020495;28;20062;-79
2022/11/09 01:52:42;;;;;;;8.38;1.63;;;;;;;;;;5007510;28;20058;-79
2022/11/09 01:55:11;;;;;;;8.75;1.38;;;;;;;;;;5008496;28;20050;-80
2022/11/09 01:57:58;;;;;;;8.57;2.20;;;;;;;;;;5012280;28;20288;-79
2022/11/09 02:00:25;;;;;;;8.43;1.77;;;;;;;;;;5009235;28;20396;-78
2022/11/09 02:02:53;;;;;;;6.88;1.50;;;;;;;;;;5007669;28;20551;-79
2022/11/09 02:05:22;;;;;;;7.03;1.52;;;;;;;;;;5007380;28;20066;-79
2022/11/09 02:07:48;;;;;;;12.27;1.92;;;;;;;;;;4993981;28;20058;-79
2022/11/09 02:10:15;;;;;;;10.07;1.95;;;;;;;;;;5025569;28;20052;-79
2022/11/09 02:12:42;;;;;;;10.95;2.42;;;;;;;;;;5008972;28;20077;-79
2022/11/09 02:15:09;;;;;;;8.57;1.50;;;;;;;;;;5030807;28;20049;-79
2022/11/09 02:17:35;;;;;;;9.65;1.83;;;;;;;;;;5026595;28;20080;-79
2022/11/09 02:20:06;;;;;;;10.95;2.05;;;;;;;;;;5007996;28;20060;-79
2022/11/09 02:22:33;;;;;;;9.02;1.75;;;;;;;;;;5007091;28;20539;-79
2022/11/09 02:24:59;;;;;;;9.43;1.85;;;;;;;;;;5008984;28;20064;-79
2022/11/09 02:27:26;;;;;;;10.30;2.13;;;;;;;;;;5008582;28;20058;-79
2022/11/09 02:29:52;;;;;;;8.52;1.95;;;;;;;;;;5004275;28;20058;-79
2022/11/09 02:32:19;;;;;;;10.77;2.60;;;;;;;;;;5009148;28;20525;-79
2022/11/09 02:34:46;;;;;;;7.13;2.28;;;;;;;;;;5008885;28;20058;-78
2022/11/09 02:37:12;;;;;;;9.40;1.98;;;;;;;;;;5024319;28;20057;-79
2022/11/09 02:39:38;;;;;;;9.25;2.00;;;;;;;;;;5025115;28;20181;-79
2022/11/09 02:42:06;;;;;;;7.22;2.10;;;;;;;;;;5008526;28;20076;-78
2022/11/09 02:44:38;;;;;;;5.68;2.00;;;;;;;;;;5025419;28;20057;-79
2022/11/09 02:47:05;;;;;;;11.07;2.05;;;;;;;;;;5007740;28;20058;-79
2022/11/09 02:49:31;;;;;;;11.20;2.42;;;;;;;;;;5006474;28;20062;-79
2022/11/09 02:51:57;;;;;;;7.55;1.90;;;;;;;;;;5025720;28;20054;-79
2022/11/09 02:54:23;;;;;;;9.13;2.22;;;;;;;;;;5007931;28;20050;-79
2022/11/09 02:56:50;;;;;;;11.52;2.22;;;;;;;;;;5007870;28;20057;-79
2022/11/09 02:59:16;;;;;;;7.57;2.30;;;;;;;;;;5005597;28;20062;-78
2022/11/09 03:01:42;;;;;;;6.47;1.80;;;;;;;;;;5025349;28;20061;-78
2022/11/09 03:04:09;;;;;;;11.15;2.22;;;;;;;;;;5007511;28;20062;-79
2022/11/09 03:06:36;;;;;;;8.35;1.90;;;;;;;;;;5031101;28;20937;-79
2022/11/09 03:09:06;;;;;;;11.73;2.33;;;;;;;;;;5022580;28;20093;-79
2022/11/09 03:11:32;;;;;;;7.35;1.92;;;;;;;;;;5024856;28;20062;-79
2022/11/09 03:13:59;;;;;;;8.43;2.95;;;;;;;;;;5025497;28;20974;-79
2022/11/09 03:16:25;;;;;;;8.70;2.00;;;;;;;;;;5027015;28;20054;-79
2022/11/09 03:18:51;;;;;;;7.75;1.95;;;;;;;;;;5024798;28;20532;-79
2022/11/09 03:21:18;;;;;;;7.97;2.20;;;;;;;;;;5007562;28;20058;-79
2022/11/09 03:23:44;;;;;;;10.35;2.97;;;;;;;;;;5007891;28;20080;-78
2022/11/09 03:26:11;;;;;;;10.77;2.38;;;;;;;;;;5005721;28;20057;-79
2022/11/09 03:28:38;;;;;;;10.13;2.13;;;;;;;;;;5007710;28;20116;-79
2022/11/09 03:31:04;;;;;;;11.30;2.22;;;;;;;;;;5024219;28;20064;-79
2022/11/09 03:33:30;;;;;;;10.48;2.10;;;;;;;;;;5006072;28;20054;-79
2022/11/09 03:35:57;;;;;;;9.10;1.95;;;;;;;;;;5008006;28;20061;-79
2022/11/09 03:38:23;;;;;;;10.82;2.65;;;;;;;;;;5006782;28;20038;-79
2022/11/09 03:40:49;;;;;;;8.60;1.85;;;;;;;;;;5008013;28;20512;-79
2022/11/09 03:43:15;;;;;;;11.82;2.60;;;;;;;;;;5004200;28;20347;-79
2022/11/09 03:45:42;;;;;;;14.43;2.20;;;;;;;;;;5020521;28;20057;-78
2022/11/09 03:48:08;;;;;;;12.13;2.10;;;;;;;;;;5023613;28;20064;-79
2022/11/09 03:50:39;;;;;;;8.35;1.95;;;;;;;;;;5005307;28;20213;-79
2022/11/09 03:53:08;;;;;;;10.00;1.98;;;;;;;;;;5025619;28;20049;-79
2022/11/09 03:55:35;;;;;;;7.07;1.77;;;;;;;;;;5008958;28;20061;-79
2022/11/09 03:58:01;;;;;;;7.03;1.65;;;;;;;;;;5004745;28;20050;-78
2022/11/09 04:00:28;;;;;;;9.70;1.63;;;;;;;;;;5024965;28;20065;-79
2022/11/09 04:02:54;;;;;;;6.07;1.70;;;;;;;;;;5006931;28;20053;-79
2022/11/09 04:05:21;;;;;;;5.97;1.60;;;;;;;;;;5024751;28;20132;-79
2022/11/09 04:07:48;;;;;;;8.93;1.90;;;;;;;;;;5025590;28;20124;-79
2022/11/09 04:10:16;;;;;;;8.23;1.60;;;;;;;;;;5023768;28;20054;-78
2022/11/09 04:12:42;;;;;;;8.90;2.10;;;;;;;;;;5025176;28;20046;-79
2022/11/09 04:15:08;;;;;;;8.27;1.58;;;;;;;;;;5009298;28;20089;-80
2022/11/09 04:17:35;;;;;;;8.60;1.42;;;;;;;;;;5027439;28;20061;-79
2022/11/09 04:20:02;;;;;;;6.43;1.40;;;;;;;;;;5018629;28;20053;-78
2022/11/09 04:22:28;;;;;;;9.02;1.70;;;;;;;;;;5017903;28;20054;-79
2022/11/09 04:24:54;;;;;;;11.00;1.65;;;;;;;;;;5006433;28;20112;-79
2022/11/09 04:27:21;;;;;;;4.63;1.20;;;;;;;;;;5025237;28;20481;-79
2022/11/09 04:29:47;;;;;;;8.52;1.58;;;;;;;;;;5026315;28;20056;-78
2022/11/09 04:32:13;;;;;;;9.43;1.90;;;;;;;;;;5032617;28;20060;-79
2022/11/09 04:34:42;;;;;;;11.63;1.80;;;;;;;;;;5022734;28;20050;-79
2022/11/09 04:37:09;;;;;;;5.40;1.33;;;;;;;;;;5006935;28;20058;-79
2022/11/09 04:39:35;;;;;;;9.30;1.40;;;;;;;;;;5007351;28;20061;-79
2022/11/09 04:42:02;;;;;;;14.88;1.90;;;;;;;;;;5006826;28;20070;-78
2022/11/09 04:44:28;;;;;;;8.43;1.70;;;;;;;;;;5005904;28;20058;-77
2022/11/09 04:46:54;;;;;;;10.25;1.80;;;;;;;;;;5022403;28;20054;-79
2022/11/09 04:49:21;;;;;;;14.30;1.75;;;;;;;;;;5024510;28;20054;-77
2022/11/09 04:51:47;;;;;;;5.53;1.20;;;;;;;;;;5006401;28;20057;-78
2022/11/09 04:54:13;;;;;;;7.90;1.33;;;;;;;;;;5006002;28;20060;-79
2022/11/09 04:56:40;;;;;;;10.82;1.92;;;;;;;;;;5005600;28;20061;-79
2022/11/09 04:59:06;;;;;;;9.23;1.42;;;;;;;;;;5007596;28;20121;-78
2022/11/09 05:01:32;;;;;;;9.73;1.35;;;;;;;;;;5025686;28;20428;-78
2022/11/09 05:03:59;;;;;;;10.80;1.35;;;;;;;;;;5026159;28;20058;-79
2022/11/09 05:06:31;;;;;;;9.40;1.45;;;;;;;;;;5001028;28;20818;-78
2022/11/09 05:09:02;;;;;;;7.43;1.40;;;;;;;;;;5002466;28;20535;-79
2022/11/09 05:11:29;;;;;;;7.20;1.40;;;;;;;;;;5026676;28;20066;-78
2022/11/09 05:13:55;;;;;;;9.20;1.30;;;;;;;;;;5027570;28;20054;-78
2022/11/09 05:16:22;;;;;;;10.70;1.65;;;;;;;;;;5007782;28;20505;-77
2022/11/09 05:18:49;;;;;;;10.48;1.50;;;;;;;;;;5010555;28;20058;-79
2022/11/09 05:21:15;;;;;;;11.13;1.75;;;;;;;;;;5008814;28;20054;-79
2022/11/09 05:24:01;;;;;;;15.90;2.13;;;;;;;;;;5026435;28;20054;-78
2022/11/09 05:26:29;;;;;;;8.90;1.50;;;;;;;;;;5005535;28;20046;-77
2022/11/09 05:28:56;;;;;;;9.43;1.48;;;;;;;;;;5000789;28;20595;-78
2022/11/09 05:31:22;;;;;;;6.22;1.70;;;;;;;;;;5008319;28;20058;-77
2022/11/09 05:33:50;;;;;;;11.25;1.58;;;;;;;;;;5025990;28;20054;-77
2022/11/09 05:36:16;;;;;;;7.05;1.55;;;;;;;;;;5008143;28;20061;-78
2022/11/09 05:38:43;;;;;;;12.55;1.60;;;;;;;;;;5028028;28;20558;-78
2022/11/09 05:41:09;;;;;;;6.78;1.45;;;;;;;;;;5027156;28;20049;-79
2022/11/09 05:43:36;;;;;;;9.75;2.10;;;;;;;;;;5007526;28;20528;-79
2022/11/09 05:46:02;;;;;;;9.65;1.90;;;;;;;;;;5024963;28;20058;-78
2022/11/09 05:48:32;;;;;;;9.60;1.85;;;;;;;;;;5009387;28;20054;-79
2022/11/09 05:51:02;;;;;;;9.57;2.13;;;;;;;;;;5008522;28;20057;-79
2022/11/09 05:53:29;;;;;;;10.55;1.90;;;;;;;;;;5007355;28;20454;-79
2022/11/09 05:55:55;;;;;;;13.32;2.00;;;;;;;;;;5012896;28;20054;-79
2022/11/09 05:58:21;;;;;;;10.25;1.77;;;;;;;;;;5007608;28;20058;-79
2022/11/09 06:00:48;;;;;;;5.68;1.52;;;;;;;;;;5008566;28;20538;-78
2022/11/09 06:03:14;;;;;;;15.10;1.77;;;;;;;;;;5026495;28;20100;-77
2022/11/09 06:05:40;;;;;;;9.18;1.67;;;;;;;;;;5026318;28;20054;-77
2022/11/09 06:08:08;;;;;;;13.48;1.90;;;;;;;;;;5008353;28;20065;-78
2022/11/09 06:10:34;;;;;;;9.15;1.88;;;;;;;;;;5000423;28;20056;-77
2022/11/09 06:13:00;;;;;;;14.32;1.88;;;;;;;;;;5005458;28;20073;-78
2022/11/09 06:15:27;;;;;;;12.68;2.17;;;;;;;;;;5007967;28;20064;-78
2022/11/09 06:17:54;;;;;;;13.23;1.67;;;;;;;;;;5019671;28;20510;-78
2022/11/09 06:20:20;;;;;;;11.77;2.30;;;;;;;;;;5022864;28;20508;-78
2022/11/09 06:22:57;;;;;;;11.95;1.92;;;;;;;;;;5021863;28;20085;-78
2022/11/09 06:25:30;;;;;;;10.13;1.80;;;;;;;;;;4999556;28;20133;-78
2022/11/09 06:27:57;;;;;;;13.02;2.10;;;;;;;;;;4991396;28;20054;-79
2022/11/09 06:30:23;;;;;;;13.20;1.60;;;;;;;;;;5007502;28;20054;-79
2022/11/09 06:32:50;;;;;;;10.05;1.65;;;;;;;;;;5006129;28;20068;-79
2022/11/09 06:35:16;;;;;;;12.15;1.90;;;;;;;;;;5004106;28;20057;-79
2022/11/09 06:37:42;;;;;;;17.15;2.30;;;;;;;;;;5022474;28;20054;-79
2022/11/09 06:40:09;;;;;;;9.02;2.20;;;;;;;;;;5006085;28;20315;-79
2022/11/09 06:42:35;;;;;;;9.23;1.80;;;;;;;;;;5020702;28;20072;-80
2022/11/09 06:45:02;;;;;;;9.23;2.13;;;;;;;;;;5011870;28;20049;-78
2022/11/09 06:47:28;;;;;;;9.55;1.90;;;;;;;;;;5024622;28;20058;-78
2022/11/09 06:49:54;;;;;;;10.82;2.28;;;;;;;;;;5004414;28;20060;-79
2022/11/09 06:52:21;;;;;;;6.75;1.80;;;;;;;;;;5027613;28;20550;-79
2022/11/09 06:54:48;;;;;;;6.93;2.10;;;;;;;;;;5017277;28;20049;-79
2022/11/09 06:57:14;;;;;;;13.57;2.20;;;;;;;;;;5022877;28;20059;-79
2022/11/09 06:59:40;;;;;;;8.50;2.15;;;;;;;;;;5025210;28;20050;-79
2022/11/09 07:02:07;;;;;;;9.25;1.90;;;;;;;;;;5007377;28;20062;-78
2022/11/09 07:04:34;;;;;;;10.63;1.70;;;;;;;;;;5027781;28;20061;-79
2022/11/09 07:07:00;;;;;;;10.50;1.98;;;;;;;;;;5025396;28;20056;-79
2022/11/09 07:09:26;;;;;;;9.32;1.98;;;;;;;;;;5026208;28;20089;-79
2022/11/09 07:11:53;;;;;;;15.18;2.65;;;;;;;;;;5024946;28;20052;-79
2022/11/09 07:14:20;;;;;;;10.63;1.88;;;;;;;;;;5007251;28;20500;-78
2022/11/09 07:16:47;;;;;;;10.82;2.03;;;;;;;;;;5039149;28;20049;-79
2022/11/09 07:19:13;;;;;;;11.85;2.70;;;;;;;;;;5012619;28;20066;-80
2022/11/09 07:21:39;;;;;;;11.57;2.00;;;;;;;;;;5007881;28;20420;-80
2022/11/09 07:24:06;;;;;;;12.38;2.10;;;;;;;;;;5021681;28;20061;-78
2022/11/09 07:26:32;;;;;;;16.60;2.63;;;;;;;;;;5021518;28;20049;-79
2022/11/09 07:28:58;;;;;;;7.13;2.00;;;;;;;;;;5009060;28;20073;-79
2022/11/09 07:31:28;;;;;;;11.77;1.80;;;;;;;;;;5035453;28;20069;-79
2022/11/09 07:33:57;;;;;;;11.57;2.22;;;;;;;;;;5011200;28;20915;-79
2022/11/09 07:36:23;;;;;;;9.50;2.08;;;;;;;;;;5012377;28;20513;-78
2022/11/09 07:38:49;;;;;;;12.25;2.35;;;;;;;;;;5031385;28;20046;-79
2022/11/09 07:41:16;;;;;;;10.32;2.17;;;;;;;;;;5015845;28;20053;-77
2022/11/09 07:43:42;;;;;;;11.77;2.38;;;;;;;;;;5013211;28;20030;-78
2022/11/09 07:46:08;;;;;;;6.95;1.85;;;;;;;;;;5021867;28;20917;-79
2022/11/09 07:48:35;;;;;;;8.80;2.10;;;;;;;;;;5013705;28;20050;-78
2022/11/09 07:51:01;;;;;;;13.82;2.63;;;;;;;;;;4993629;28;20070;-79
2022/11/09 07:53:27;;;;;;;13.88;2.33;;;;;;;;;;5024530;28;20067;-78
2022/11/09 07:55:57;;;;;;;10.45;2.42;;;;;;;;;;5019673;28;20472;-78
2022/11/09 07:58:24;;;;;;;10.80;2.33;;;;;;;;;;5026016;28;20065;-78
2022/11/09 08:00:50;;;;;;;14.82;2.35;;;;;;;;;;5010455;28;20485;-79
2022/11/09 08:03:17;;;;;;;12.65;2.38;;;;;;;;;;5006328;28;20051;-79
2022/11/09 08:05:44;;;;;;;11.13;2.10;;;;;;;;;;5007880;28;20837;-79
2022/11/09 08:08:11;;;;;;;15.02;2.60;;;;;;;;;;4997296;28;20053;-79
2022/11/09 08:10:38;;;;;;;11.90;2.35;;;;;;;;;;5027297;28;20512;-79
2022/11/09 08:13:05;;;;;;;9.13;2.30;;;;;;;;;;5030546;28;20057;-78
2022/11/09 08:15:32;;;;;;;12.82;2.55;;;;;;;;;;5008463;28;20448;-78
2022/11/09 08:18:00;;;;;;;10.48;2.45;;;;;;;;;;5023240;28;20965;-78
2022/11/09 08:20:26;;;;;;;12.57;2.90;;;;;;;;;;5024738;28;20101;-80
2022/11/09 08:22:52;;;;;;;11.38;2.20;;;;;;;;;;5005107;28;20085;-79
2022/11/09 08:25:19;;;;;;;8.82;2.40;;;;;;;;;;5026675;28;20833;-78
2022/11/09 08:27:45;;;;;;;12.45;2.88;;;;;;;;;;5011800;28;20227;-79
2022/11/09 08:30:13;;;;;;;10.63;2.88;;;;;;;;;;5011836;28;20065;-79
2022/11/09 08:32:40;;;;;;;17.73;2.45;;;;;;;;;;5011566;28;20058;-79
2022/11/09 08:35:09;;;;;;;11.02;2.50;;;;;;;;;;5012973;28;20054;-79
2022/11/09 08:37:36;;;;;;;13.75;2.47;;;;;;;;;;5015568;28;20564;-79
2022/11/09 08:40:02;;;;;;;12.40;2.70;;;;;;;;;;5013940;28;20054;-79
2022/11/09 08:42:29;;;;;;;8.38;2.05;;;;;;;;;;5031150;28;20109;-79
2022/11/09 08:44:55;;;;;;;8.25;2.10;;;;;;;;;;5014862;28;20057;-78
2022/11/09 08:47:21;;;;;;;8.45;2.40;;;;;;;;;;5012697;28;20870;-78
2022/11/09 08:49:48;;;;;;;8.13;2.03;;;;;;;;;;5023201;28;20060;-79
2022/11/09 08:52:15;;;;;;;12.82;3.03;;;;;;;;;;5010271;28;20065;-79
2022/11/09 08:54:41;;;;;;;6.50;1.80;;;;;;;;;;5029771;28;20062;-79
2022/11/09 08:57:08;;;;;;;9.70;2.40;;;;;;;;;;5027146;28;20046;-79
2022/11/09 08:59:34;;;;;;;11.85;2.22;;;;;;;;;;5012228;28;20535;-79
2022/11/09 09:02:00;;;;;;;13.82;2.50;;;;;;;;;;5031254;28;20037;-78
2022/11/09 09:04:28;;;;;;;11.50;2.30;;;;;;;;;;5031772;28;20068;-78
2022/11/09 09:06:54;;;;;;;8.25;2.60;;;;;;;;;;5029399;28;20054;-78
2022/11/09 09:09:21;;;;;;;10.80;2.63;;;;;;;;;;5031413;28;20048;-79
2022/11/09 09:11:47;;;;;;;9.02;2.30;;;;;;;;;;5032145;28;20046;-79
2022/11/09 09:14:14;;;;;;;9.10;2.50;;;;;;;;;;5008541;28;20101;-79
2022/11/09 09:16:41;;;;;;;11.65;2.67;;;;;;;;;;5030996;28;20054;-79
2022/11/09 09:19:07;;;;;;;15.70;2.22;;;;;;;;;;5034118;28;20504;-80
2022/11/09 09:21:33;;;;;;;12.48;2.03;;;;;;;;;;5015745;28;20883;-79
2022/11/09 09:24:00;;;;;;;11.68;2.13;;;;;;;;;;5014254;28;20057;-79
2022/11/09 09:26:26;;;;;;;10.95;2.08;;;;;;;;;;5016713;28;20512;-79
2022/11/09 09:28:52;;;;;;;10.40;2.45;;;;;;;;;;5008993;28;20052;-79
2022/11/09 09:31:18;;;;;;;11.68;2.58;;;;;;;;;;5029479;28;20053;-79
2022/11/09 09:33:46;;;;;;;12.45;2.80;;;;;;;;;;5011606;28;20058;-78
2022/11/09 09:36:20;;;;;;;14.52;2.85;;;;;;;;;;5017501;28;20064;-79
2022/11/09 09:38:50;;;;;;;8.63;2.40;;;;;;;;;;5026527;28;20056;-79
2022/11/09 09:41:26;;;;;;;9.18;2.15;;;;;;;;;;5011112;28;20050;-79
2022/11/09 09:44:11;;;;;;;10.75;2.20;;;;;;;;;;5011563;28;20064;-79
2022/11/09 09:46:41;;;;;;;12.43;2.47;;;;;;;;;;5000168;28;20051;-79
2022/11/09 09:49:13;;;;;;;13.57;2.20;;;;;;;;;;5010097;28;20053;-80
2022/11/09 09:51:41;;;;;;;11.63;2.35;;;;;;;;;;5010891;28;20057;-79
2022/11/09 09:54:19;;;;;;;11.77;2.00;;;;;;;;;;5027448;28;20053;-79
2022/11/09 09:56:47;;;;;;;9.93;2.10;;;;;;;;;;5010583;28;20050;-80
2022/11/09 09:59:19;;;;;;;13.27;2.55;;;;;;;;;;5027629;28;20061;-78
2022/11/09 10:01:46;;;;;;;9.10;2.25;;;;;;;;;;5009766;28;20136;-79
2022/11/09 10:04:12;;;;;;;9.63;2.10;;;;;;;;;;5006383;28;20046;-78
2022/11/09 10:06:46;;;;;;;12.35;2.28;;;;;;;;;;5008397;28;20161;-78
2022/11/09 10:09:26;;;;;;;10.82;2.17;;;;;;;;;;5026214;28;20050;-78
2022/11/09 10:12:00;;;;;;;9.00;2.03;;;;;;;;;;5040470;28;20060;-78
2022/11/09 10:14:30;;;;;;;10.40;2.25;;;;;;;;;;5040166;28;20054;-78
2022/11/09 10:16:56;;;;;;;10.85;2.35;;;;;;;;;;5010975;28;20050;-80
2022/11/09 10:19:34;;;;;;;10.07;1.80;;;;;;;;;;5013149;28;20065;-80
2022/11/09 10:22:01;;;;;;;11.18;2.55;;;;;;;;;;5013674;28;20050;-80
2022/11/09 10:24:30;;;;;;;10.90;2.10;;;;;;;;;;5015564;28;20517;-80
2022/11/09 10:26:58;;;;;;;12.18;2.45;;;;;;;;;;5017025;28;20061;-80
2022/11/09 10:29:40;;;;;;;8.98;2.38;;;;;;;;;;5014736;28;20058;-80
2022/11/09 10:32:17;;;;;;;12.70;2.28;;;;;;;;;;5011850;28;20046;-80
2022/11/09 10:34:52;;;;;;;11.18;2.35;;;;;;;;;;5013618;28;20058;-80
2022/11/09 10:37:24;;;;;;;9.63;1.92;;;;;;;;;;5019429;28;20505;-81
2022/11/09 10:39:54;;;;;;;10.85;2.40;;;;;;;;;;5032438;28;20058;-80
2022/11/09 10:42:21;;;;;;;11.18;3.35;;;;;;;;;;5015253;28;20057;-81
2022/11/09 10:44:47;;;;;;;11.02;2.63;;;;;;;;;;5012775;28;20046;-80
2022/11/09 10:47:17;;;;;;;11.05;2.40;;;;;;;;;;5015075;28;20061;-80
2022/11/09 10:49:44;;;;;;;13.27;2.92;;;;;;;;;;5015832;28;20048;-80
2022/11/09 10:52:31;;;;;;;13.18;3.00;;;;;;;;;;5015696;28;20899;-80
2022/11/09 10:55:15;;;;;;;8.45;2.45;;;;;;;;;;5018584;28;20050;-82
2022/11/09 10:57:53;;;;;;;10.27;2.42;;;;;;;;;;5018750;28;20054;-83
2022/11/09 11:00:20;;;;;;;10.43;2.42;;;;;;;;;;5014763;28;20157;-82
2022/11/09 11:02:48;;;;;;;8.75;2.30;;;;;;;;;;5015393;28;20054;-82
2022/11/09 11:05:15;;;;;;;9.60;2.78;;;;;;;;;;5013584;28;20145;-82
2022/11/09 11:07:49;;;;;;;8.93;2.20;;;;;;;;;;5014949;28;20137;-82
2022/11/09 11:10:15;;;;;;;11.90;3.22;;;;;;;;;;5015564;28;20066;-82
2022/11/09 11:12:42;;;;;;;7.85;2.08;;;;;;;;;;5012629;28;20049;-82
2022/11/09 11:15:27;;;;;;;9.88;2.33;;;;;;;;;;5030636;28;20060;-82
2022/11/09 11:18:23;;;;;;;12.63;2.50;;;;;;;;;;5032095;28;20038;-81
2022/11/09 11:21:10;;;;;;;12.43;2.63;;;;;;;;;;4997181;28;20049;-82
2022/11/09 11:23:43;;;;;;;10.63;2.40;;;;;;;;;;5012983;28;20530;-83
2022/11/09 11:26:22;;;;;;;7.18;2.60;;;;;;;;;;5026791;28;20061;-83
2022/11/09 11:28:55;;;;;;;7.18;2.10;;;;;;;;;;5028582;28;20060;-82
2022/11/09 11:31:21;;;;;;;7.18;2.00;;;;;;;;;;5009288;28;20207;-82
2022/11/09 11:33:48;;;;;;;11.05;2.42;;;;;;;;;;5008538;28;20042;-82
2022/11/09 11:36:23;;;;;;;12.63;2.28;;;;;;;;;;5029420;28;20057;-82
2022/11/09 11:39:11;;;;;;;10.18;2.38;;;;;;;;;;5008062;28;20287;-82
2022/11/09 11:41:44;;;;;;;11.20;2.20;;;;;;;;;;5008798;28;20064;-83
2022/11/09 11:44:29;;;;;;;10.93;2.17;;;;;;;;;;4992355;28;20611;-84
2022/11/09 11:47:09;;;;;;;11.07;1.92;;;;;;;;;;5025335;28;20085;-81
2022/11/09 11:49:35;;;;;;;7.87;2.20;;;;;;;;;;5014270;28;20421;-82
2022/11/09 11:52:07;;;;;;;8.18;1.98;;;;;;;;;;5019145;28;20045;-79
2022/11/09 11:54:52;;;;;;;11.75;2.20;;;;;;;;;;5022649;28;20880;-80
2022/11/09 11:57:18;;;;;;;8.45;1.92;;;;;;;;;;5017270;28;20057;-80
2022/11/09 11:59:54;;;;;;;11.57;2.22;;;;;;;;;;5031916;28;20211;-81
2022/11/09 12:02:39;;;;;;;8.00;2.00;;;;;;;;;;5020114;28;20046;-81
2022/11/09 12:05:14;;;;;;;5.95;1.85;;;;;;;;;;5036629;28;20054;-81
2022/11/09 12:07:41;;;;;;;7.97;2.08;;;;;;;;;;5016689;28;20058;-81
2022/11/09 12:10:15;;;;;;;13.43;2.90;;;;;;;;;;5032776;28;20068;-81
2022/11/09 12:12:41;;;;;;;10.60;2.47;;;;;;;;;;5017097;28;20058;-82
2022/11/09 12:15:07;;;;;;;9.85;2.42;;;;;;;;;;5015238;28;20053;-82
2022/11/09 12:17:57;;;;;;;11.88;3.47;;;;;;;;;;5029864;28;20058;-82
2022/11/09 12:20:26;;;;;;;9.73;2.90;;;;;;;;;;4996804;28;20058;-82
2022/11/09 12:23:12;;;;;;;12.20;2.53;;;;;;;;;;5019184;28;21266;-81
2022/11/09 12:25:44;;;;;;;12.38;2.33;;;;;;;;;;5034729;28;20065;-81
2022/11/09 12:28:13;;;;;;;6.78;2.22;;;;;;;;;;5032769;28;20774;-81
2022/11/09 12:30:57;;;;;;;14.55;2.38;;;;;;;;;;5017624;28;20049;-81
2022/11/09 12:33:31;;;;;;;11.77;3.05;;;;;;;;;;5034894;28;20058;-81
2022/11/09 12:36:07;;;;;;;12.50;2.78;;;;;;;;;;5007665;28;20061;-82
2022/11/09 12:38:37;;;;;;;10.00;2.03;;;;;;;;;;5015220;28;20475;-83
2022/11/09 12:41:06;;;;;;;8.60;1.97;;;;;;;;;;5033809;28;20050;-83
2022/11/09 12:43:49;;;;;;;11.15;2.65;;;;;;;;;;5022637;28;20625;-82
2022/11/09 12:46:16;;;;;;;14.43;2.30;;;;;;;;;;5017069;28;20058;-83
2022/11/09 12:48:44;;;;;;;9.73;2.17;;;;;;;;;;5008546;28;20034;-82
2022/11/09 12:51:10;;;;;;;6.15;1.70;;;;;;;;;;5032650;28;20050;-83
2022/11/09 12:53:37;;;;;;;14.75;2.50;;;;;;;;;;5014801;28;20069;-82
2022/11/09 12:56:16;;;;;;;10.30;2.47;;;;;;;;;;5013966;28;20069;-82
2022/11/09 12:58:43;;;;;;;10.80;2.13;;;;;;;;;;5029977;28;20858;-81
2022/11/09 13:01:10;;;;;;;8.75;2.63;;;;;;;;;;5044934;28;20049;-81
2022/11/09 13:03:51;;;;;;;9.18;1.92;;;;;;;;;;5052668;28;20053;-82
2022/11/09 13:06:20;;;;;;;7.90;2.00;;;;;;;;;;5017072;28;20058;-80
2022/11/09 13:09:05;;;;;;;8.93;2.03;;;;;;;;;;5012056;28;20043;-82
2022/11/09 13:11:36;;;;;;;10.77;2.22;;;;;;;;;;5023238;28;20054;-81
2022/11/09 13:14:21;;;;;;;7.40;1.60;;;;;;;;;;5013897;28;20177;-82
2022/11/09 13:16:51;;;;;;;5.97;1.85;;;;;;;;;;5016054;28;20054;-82
2022/11/09 13:19:33;;;;;;;10.52;2.17;;;;;;;;;;5019358;28;20057;-82
2022/11/09 13:22:00;;;;;;;8.23;1.75;;;;;;;;;;5018268;28;20057;-81
2022/11/09 13:24:29;;;;;;;6.50;1.58;;;;;;;;;;5015374;28;20034;-82
2022/11/09 13:27:00;;;;;;;8.30;1.38;;;;;;;;;;5019156;28;20539;-83
2022/11/09 13:29:26;;;;;;;10.02;1.60;;;;;;;;;;5017649;28;20054;-81
2022/11/09 13:32:00;;;;;;;8.52;1.60;;;;;;;;;;5034161;28;20049;-81
2022/11/09 13:34:42;;;;;;;6.13;1.50;;;;;;;;;;5026511;28;20787;-82
2022/11/09 13:37:27;;;;;;;7.80;1.20;;;;;;;;;;5026140;28;20493;-83
2022/11/09 13:39:53;;;;;;;10.18;1.60;;;;;;;;;;5019731;28;20058;-81
2022/11/09 13:42:38;;;;;;;7.00;1.33;;;;;;;;;;5018397;28;20066;-81
2022/11/09 13:45:28;;;;;;;6.28;1.50;;;;;;;;;;5036048;28;20054;-81
2022/11/09 13:47:55;;;;;;;8.43;1.30;;;;;;;;;;5020093;28;20073;-82
2022/11/09 13:50:22;;;;;;;5.43;1.33;;;;;;;;;;5017296;28;20054;-83
2022/11/09 13:52:50;;;;;;;8.68;1.20;;;;;;;;;;5018002;28;20578;-82
2022/11/09 13:55:37;;;;;;;7.53;1.08;;;;;;;;;;5028305;28;20054;-83
2022/11/09 13:58:09;;;;;;;5.80;1.00;;;;;;;;;;5008885;28;20303;-82
2022/11/09 14:00:35;;;;;;;4.57;1.10;;;;;;;;;;5017339;28;20060;-83
2022/11/09 14:03:05;;;;;;;4.50;0.95;;;;;;;;;;5034133;28;20069;-83
2022/11/09 14:05:33;;;;;;;8.43;1.33;;;;;;;;;;5015368;28;20060;-84
2022/11/09 14:08:01;;;;;;;4.47;0.90;;;;;;;;;;5018518;28;20054;-82
2022/11/09 14:11:03;;;;;;;9.70;1.48;;;;;;;;;;5017324;28;20061;-82
2022/11/09 14:13:39;;;;;;;6.13;1.30;;;;;;;;;;4916357;29;20056;-83
2022/11/09 14:16:12;;;;;;;4.25;0.98;;;;;;;;;;5007967;28;20050;-84
2022/11/09 14:18:44;;;;;;;4.25;0.82;;;;;;;;;;5035708;28;20057;-81
2022/11/09 14:21:10;;;;;;;5.35;1.15;;;;;;;;;;5017478;28;20441;-85
2022/11/09 14:23:36;;;;;;;6.13;1.35;;;;;;;;;;5028836;28;20073;-83
2022/11/09 14:26:07;;;;;;;5.25;1.10;;;;;;;;;;5025080;28;20034;-83
2022/11/09 14:28:34;;;;;;;8.20;1.13;;;;;;;;;;5017371;28;20058;-83
2022/11/09 14:31:01;;;;;;;9.32;1.10;;;;;;;;;;5035547;28;20559;-82
2022/11/09 14:33:29;;;;;;;8.15;1.55;;;;;;;;;;5017443;28;20104;-83
2022/11/09 14:35:56;;;;;;;6.47;1.30;;;;;;;;;;5016990;28;20245;-84
2022/11/09 14:38:25;;;;;;;6.07;1.20;;;;;;;;;;5034863;28;20038;-83
2022/11/09 14:40:52;;;;;;;7.57;1.25;;;;;;;;;;5018874;28;20058;-83
2022/11/09 14:43:24;;;;;;;6.57;1.30;;;;;;;;;;5032861;28;20053;-82
2022/11/09 14:45:51;;;;;;;10.65;1.70;;;;;;;;;;5053593;28;20041;-83
2022/11/09 14:48:18;;;;;;;4.70;1.60;;;;;;;;;;5033405;28;20540;-84
2022/11/09 14:50:46;;;;;;;8.00;1.42;;;;;;;;;;5017662;28;20057;-83